Time;durP1;ratioP1;P1;durP2;ratioP2;P2;SDS_P1;SDS_P2;PMS_P1;PMS_P2;Temp;Humidity;BMP_temperature;BMP_pressure;BME280_temperature;BME280_humidity;BME280_pressure;Samples;Min_cycle;Max_cycle;Signal;HPM_P1;HPM_P2
2024/02/07 00:03:33;;;;;;;;;;;;;;;8.38;59.34;94720.88;10516817;22;20221;-82
2024/02/07 00:08:33;;;;;;;;;;;;;;;8.48;59.65;94725.53;10432204;28;19977;-81
2024/02/07 00:13:34;;;;;;;;;;;;;;;8.49;60.38;94721.78;10406139;28;19940;-81
2024/02/07 00:18:34;;;;;;;;;;;;;;;8.42;60.05;94725.75;10439765;28;19912;-80
2024/02/07 00:23:34;;;;;;;;;;;;;;;8.27;60.51;94729.13;10426315;28;19917;-80
2024/02/07 00:28:34;;;;;;;;;;;;;;;8.09;61.97;94716.97;10406115;28;19917;-81
2024/02/07 00:33:35;;;;;;;;;;;;;;;7.87;64.54;94728.59;10424848;28;19913;-81
2024/02/07 00:38:35;;;;;;;;;;;;;;;7.72;65.04;94729.28;10425243;28;20384;-81
2024/02/07 00:43:35;;;;;;;;;;;;;;;7.29;68.50;94726.47;10421386;28;20435;-80
2024/02/07 00:48:35;;;;;;;;;;;;;;;7.30;69.70;94721.97;10422981;28;20208;-80
2024/02/07 00:53:36;;;;;;;;;;;;;;;7.10;73.05;94731.38;10423168;28;19932;-80
2024/02/07 00:58:36;;;;;;;;;;;;;;;6.95;72.96;94721.34;10422954;28;19924;-81
2024/02/07 01:03:36;;;;;;;;;;;;;;;6.95;73.57;94710.66;10423092;28;19929;-80
2024/02/07 01:08:36;;;;;;;;;;;;;;;6.77;75.10;94703.75;10422440;28;20142;-80
2024/02/07 01:13:37;;;;;;;;;;;;;;;6.73;75.58;94699.97;10422498;28;19916;-82
2024/02/07 01:18:38;;;;;;;;;;;;;;;6.73;77.50;94702.66;10422128;28;19919;-81
2024/02/07 01:23:42;;;;;;;;;;;;;;;6.64;78.25;94704.97;10403279;28;19919;-80
2024/02/07 01:28:43;;;;;;;;;;;;;;;6.63;80.00;94699.88;10421322;28;19923;-81
2024/02/07 01:33:43;;;;;;;;;;;;;;;6.27;83.97;94694.06;10403765;28;19913;-82
2024/02/07 01:38:43;;;;;;;;;;;;;;;6.28;87.11;94696.50;10421819;28;19913;-82
2024/02/07 01:43:44;;;;;;;;;;;;;;;6.26;84.20;94695.91;10421499;28;20286;-81
2024/02/07 01:48:45;;;;;;;;;;;;;;;6.38;84.50;94690.47;10420953;28;20390;-81
2024/02/07 01:53:47;;;;;;;;;;;;;;;6.56;81.00;94675.19;10421204;28;20297;-81
2024/02/07 01:58:47;;;;;;;;;;;;;;;6.69;81.62;94668.69;10418893;28;20295;-81
2024/02/07 02:03:47;;;;;;;;;;;;;;;6.78;80.87;94677.84;10434496;28;19929;-79
2024/02/07 02:08:49;;;;;;;;;;;;;;;6.72;79.75;94678.88;10430805;28;19963;-82
2024/02/07 02:13:52;;;;;;;;;;;;;;;6.63;77.53;94681.19;10430833;28;19913;-79
2024/02/07 02:18:53;;;;;;;;;;;;;;;6.61;83.59;94677.94;10432369;28;19928;-81
2024/02/07 02:24:21;;;;;;;;;;;;;;;6.43;84.35;94679.06;10430039;28;19968;-81
2024/02/07 02:29:32;;;;;;;;;;;;;;;6.46;84.05;94687.38;10426686;28;19928;-80
2024/02/07 02:34:34;;;;;;;;;;;;;;;6.31;84.22;94679.19;10411249;28;19929;-80
2024/02/07 02:39:34;;;;;;;;;;;;;;;6.25;89.57;94672.97;10437696;28;20345;-78
2024/02/07 02:44:35;;;;;;;;;;;;;;;6.10;91.23;94673.56;10421400;28;19913;-80
2024/02/07 02:49:36;;;;;;;;;;;;;;;5.94;92.46;94653.84;10428812;28;19921;-82
2024/02/07 02:54:36;;;;;;;;;;;;;;;5.75;93.92;94661.31;10426476;28;20337;-80
2024/02/07 02:59:36;;;;;;;;;;;;;;;5.58;95.87;94676.50;10421278;28;19917;-80
2024/02/07 03:04:43;;;;;;;;;;;;;;;5.50;96.76;94666.25;10421075;28;19958;-80
2024/02/07 03:09:49;;;;;;;;;;;;;;;5.33;98.78;94667.09;10397143;28;19964;-81
2024/02/07 03:14:49;;;;;;;;;;;;;;;5.21;100.00;94667.13;10405692;28;19931;-81
2024/02/07 03:19:49;;;;;;;;;;;;;;;5.24;100.00;94666.66;10408829;28;20385;-81
2024/02/07 03:24:55;;;;;;;;;;;;;;;5.03;100.00;94665.50;10414309;28;19912;-81
2024/02/07 03:29:56;;;;;;;;;;;;;;;4.91;100.00;94664.75;10423253;28;19925;-80
2024/02/07 03:34:56;;;;;;;;;;;;;;;4.79;100.00;94659.50;10384576;28;19960;-81
2024/02/07 03:39:57;;;;;;;;;;;;;;;4.77;100.00;94653.56;10400691;28;20351;-79
2024/02/07 03:45:03;;;;;;;;;;;;;;;4.76;100.00;94646.66;10435473;28;20482;-81
2024/02/07 03:50:05;;;;;;;;;;;;;;;4.92;100.00;94651.19;10434147;28;19932;-80
2024/02/07 03:55:06;;;;;;;;;;;;;;;4.88;100.00;94647.38;10436004;28;19913;-80
2024/02/07 04:00:10;;;;;;;;;;;;;;;4.97;100.00;94651.28;10435849;28;19936;-80
2024/02/07 04:05:13;;;;;;;;;;;;;;;4.90;100.00;94660.50;10416597;28;19929;-79
2024/02/07 05:19:10;;;;;;;;;;;;;;;5.42;100.00;94627.50;10420622;28;19913;-78
2024/02/07 05:24:10;;;;;;;;;;;;;;;5.37;100.00;94625.56;10423276;28;19913;-76
2024/02/07 05:29:15;;;;;;;;;;;;;;;5.21;100.00;94632.50;10376249;28;19921;-81
2024/02/07 05:34:16;;;;;;;;;;;;;;;5.34;100.00;94642.03;10393006;28;20368;-78
2024/02/07 05:39:16;;;;;;;;;;;;;;;5.38;100.00;94634.38;10405342;28;19917;-79
2024/02/07 05:44:17;;;;;;;;;;;;;;;5.41;100.00;94639.19;10389387;28;19913;-77
2024/02/07 05:49:17;;;;;;;;;;;;;;;5.52;100.00;94634.84;10384124;28;20026;-76
2024/02/07 05:54:17;;;;;;;;;;;;;;;5.65;100.00;94632.66;10384197;28;19913;-75
2024/02/07 05:59:18;;;;;;;;;;;;;;;5.82;100.00;94637.16;10395949;28;19965;-76
2024/02/07 06:04:18;;;;;;;;;;;;;;;6.01;100.00;94639.56;10423442;28;19913;-77
2024/02/07 06:09:19;;;;;;;;;;;;;;;6.15;100.00;94646.97;10418733;28;19939;-79
2024/02/07 06:14:20;;;;;;;;;;;;;;;6.27;100.00;94646.84;10437374;28;19936;-80
2024/02/07 06:19:22;;;;;;;;;;;;;;;6.32;100.00;94648.75;10421778;28;19978;-79
2024/02/07 06:24:22;;;;;;;;;;;;;;;6.52;100.00;94637.53;10441175;28;19912;-76
2024/02/07 06:29:22;;;;;;;;;;;;;;;6.49;100.00;94633.47;10423711;28;19916;-82
2024/02/07 06:34:23;;;;;;;;;;;;;;;6.58;100.00;94627.72;10410816;28;19916;-77
2024/02/07 06:39:24;;;;;;;;;;;;;;;6.79;100.00;94652.75;10423293;28;20007;-76
2024/02/07 06:44:24;;;;;;;;;;;;;;;6.99;100.00;94657.50;10442891;28;20366;-77
2024/02/07 06:49:24;;;;;;;;;;;;;;;7.19;100.00;94640.88;10441680;28;19923;-77
2024/02/07 06:54:24;;;;;;;;;;;;;;;7.51;98.74;94651.56;10423906;28;19924;-80
2024/02/07 06:59:25;;;;;;;;;;;;;;;7.84;98.09;94633.59;10424508;28;19970;-75
2024/02/07 07:04:25;;;;;;;;;;;;;;;8.19;97.40;94628.69;10424234;28;20031;-79
2024/02/07 07:09:25;;;;;;;;;;;;;;;8.49;89.32;94644.13;10441592;28;19921;-79
2024/02/07 07:14:25;;;;;;;;;;;;;;;8.82;89.41;94639.41;10424077;28;19924;-76
2024/02/07 07:19:25;;;;;;;;;;;;;;;9.04;89.48;94628.47;10441600;28;19913;-76
2024/02/07 07:24:26;;;;;;;;;;;;;;;9.30;87.32;94631.16;10429641;28;19917;-76
2024/02/07 07:29:26;;;;;;;;;;;;;;;9.75;81.73;94629.56;10430242;28;19920;-75
2024/02/07 07:34:26;;;;;;;;;;;;;;;10.35;77.79;94622.72;10448302;28;19916;-77
2024/02/07 07:39:27;;;;;;;;;;;;;;;10.78;73.64;94610.44;10422463;28;19924;-75
2024/02/07 07:44:27;;;;;;;;;;;;;;;10.86;72.94;94617.13;10408863;28;20160;-77
2024/02/07 07:49:27;;;;;;;;;;;;;;;11.06;72.71;94612.72;10400776;28;20444;-75
2024/02/07 07:54:27;;;;;;;;;;;;;;;11.16;73.16;94607.25;10389506;28;19976;-76
2024/02/07 07:59:27;;;;;;;;;;;;;;;11.43;71.08;94606.00;10429371;28;20007;-76
2024/02/07 08:04:28;;;;;;;;;;;;;;;11.53;72.79;94597.03;10429015;28;19917;-75
2024/02/07 08:09:28;;;;;;;;;;;;;;;11.72;70.14;94589.03;10429385;28;19916;-76
2024/02/07 08:14:28;;;;;;;;;;;;;;;11.93;67.56;94576.19;10428852;28;20016;-77
2024/02/07 08:19:28;;;;;;;;;;;;;;;12.08;66.53;94572.56;10427707;28;19971;-77
2024/02/07 08:24:29;;;;;;;;;;;;;;;12.27;63.96;94578.81;10446924;28;19913;-77
2024/02/07 08:29:30;;;;;;;;;;;;;;;12.61;62.10;94563.56;10429054;28;19925;-77
2024/02/07 08:34:30;;;;;;;;;;;;;;;12.90;59.89;94557.25;10407091;28;19917;-77
2024/02/07 08:39:30;;;;;;;;;;;;;;;13.56;57.36;94551.91;10445824;28;19959;-77
2024/02/07 08:44:31;;;;;;;;;;;;;;;14.21;53.98;94547.50;10444356;28;19912;-75
2024/02/07 08:49:32;;;;;;;;;;;;;;;14.46;52.36;94544.28;10415182;28;19921;-81
2024/02/07 08:54:33;;;;;;;;;;;;;;;14.33;52.26;94558.59;10399296;28;19913;-76
2024/02/07 08:59:33;;;;;;;;;;;;;;;14.22;53.15;94565.31;10368803;28;19920;-75
2024/02/07 09:04:33;;;;;;;;;;;;;;;14.47;52.48;94562.13;10421064;28;19917;-75
2024/02/07 09:09:34;;;;;;;;;;;;;;;14.67;52.31;94552.00;10443420;28;19967;-75
2024/02/07 09:14:34;;;;;;;;;;;;;;;15.13;49.99;94542.84;10443143;28;19925;-76
2024/02/07 09:19:34;;;;;;;;;;;;;;;15.02;50.02;94547.69;10425155;28;19935;-76
2024/02/07 09:24:34;;;;;;;;;;;;;;;15.09;50.57;94527.53;10417228;28;19917;-76
2024/02/07 09:29:38;;;;;;;;;;;;;;;15.46;49.72;94529.09;10437838;28;19917;-76
2024/02/07 09:34:42;;;;;;;;;;;;;;;15.71;49.48;94510.56;10425326;28;19921;-75
2024/02/07 09:39:42;;;;;;;;;;;;;;;16.34;49.06;94500.47;10442593;28;19913;-77
2024/02/07 09:44:45;;;;;;;;;;;;;;;16.05;48.82;94492.91;10424822;28;19912;-77
2024/02/07 09:49:46;;;;;;;;;;;;;;;16.05;49.11;94482.06;10424255;28;19923;-76
2024/02/07 09:54:49;;;;;;;;;;;;;;;15.58;50.42;94474.31;10442506;28;19924;-76
2024/02/07 09:59:51;;;;;;;;;;;;;;;15.29;51.54;94472.09;10442271;28;19916;-75
2024/02/07 10:04:52;;;;;;;;;;;;;;;16.04;51.59;94454.13;10420184;28;19952;-75
2024/02/07 10:09:55;;;;;;;;;;;;;;;16.57;48.82;94448.81;10418302;28;20004;-76
2024/02/07 10:14:55;;;;;;;;;;;;;;;17.77;45.59;94433.78;10437352;28;19942;-80
2024/02/07 10:19:56;;;;;;;;;;;;;;;18.12;44.03;94419.28;10421142;28;19950;-81
2024/02/07 10:24:56;;;;;;;;;;;;;;;18.44;42.71;94412.34;10422356;28;20298;-83
2024/02/07 10:30:01;;;;;;;;;;;;;;;18.88;43.02;94406.56;10424324;28;20239;-80
2024/02/07 10:35:03;;;;;;;;;;;;;;;18.86;42.99;94395.19;10396936;28;19920;-81
2024/02/07 10:40:04;;;;;;;;;;;;;;;19.00;42.42;94394.94;10424098;28;20284;-80
2024/02/07 10:45:11;;;;;;;;;;;;;;;18.85;42.10;94393.59;10423555;28;19921;-75
2024/02/07 10:50:11;;;;;;;;;;;;;;;19.04;41.92;94384.97;10420779;28;19917;-76
2024/02/07 10:55:12;;;;;;;;;;;;;;;19.58;40.87;94354.88;10382868;28;20383;-81
2024/02/07 11:00:13;;;;;;;;;;;;;;;20.78;38.48;94343.69;10432694;28;19917;-81
2024/02/07 11:05:13;;;;;;;;;;;;;;;21.46;38.02;94331.03;10444937;28;19928;-82
2024/02/07 11:10:14;;;;;;;;;;;;;;;21.04;37.97;94336.19;10393279;28;19924;-76
2024/02/07 11:15:14;;;;;;;;;;;;;;;21.71;36.37;94319.91;10431019;28;19929;-82
2024/02/07 11:20:15;;;;;;;;;;;;;;;23.46;34.28;94307.47;10431683;28;19913;-76
2024/02/07 11:25:17;;;;;;;;;;;;;;;25.24;30.56;94300.44;10413947;28;19927;-80
2024/02/07 11:30:18;;;;;;;;;;;;;;;26.46;29.67;94294.31;10431489;28;19948;-75
2024/02/07 11:35:22;;;;;;;;;;;;;;;27.23;28.19;94272.16;10429921;28;20003;-73
2024/02/07 11:40:26;;;;;;;;;;;;;;;27.48;27.71;94272.19;10447874;28;20004;-76
2024/02/07 11:45:27;;;;;;;;;;;;;;;27.84;27.21;94261.16;10430470;28;20437;-76
2024/02/07 11:50:34;;;;;;;;;;;;;;;28.36;26.13;94255.13;10430788;28;20484;-85
2024/02/07 11:55:39;;;;;;;;;;;;;;;28.30;25.45;94242.94;10429939;28;20248;-76
2024/02/07 12:00:41;;;;;;;;;;;;;;;26.53;26.73;94239.25;10430307;28;20373;-77
2024/02/07 12:05:42;;;;;;;;;;;;;;;25.31;27.89;94233.72;10429822;28;19917;-80
2024/02/07 12:10:42;;;;;;;;;;;;;;;23.31;29.81;94221.44;10428561;28;19924;-75
2024/02/07 12:15:42;;;;;;;;;;;;;;;21.23;32.18;94210.59;10447039;28;19916;-75
2024/02/07 12:20:43;;;;;;;;;;;;;;;20.95;32.34;94203.28;10429350;28;20379;-78
2024/02/07 12:25:54;;;;;;;;;;;;;;;20.56;33.30;94194.84;10429533;28;19921;-81
2024/02/07 12:31:00;;;;;;;;;;;;;;;20.01;33.93;94201.91;10426440;28;20307;-80
2024/02/07 12:36:00;;;;;;;;;;;;;;;19.71;33.54;94186.63;10363622;28;20470;-75
2024/02/07 12:41:03;;;;;;;;;;;;;;;18.99;34.70;94184.47;10427918;28;19913;-80
2024/02/07 12:46:05;;;;;;;;;;;;;;;18.78;35.19;94192.66;10446922;28;20323;-81
2024/02/07 12:51:07;;;;;;;;;;;;;;;18.31;36.84;94190.31;10443551;28;19912;-74
2024/02/07 12:56:13;;;;;;;;;;;;;;;18.19;37.73;94182.91;10420764;28;19963;-79
2024/02/07 13:01:20;;;;;;;;;;;;;;;17.65;39.20;94180.94;10442354;28;20020;-80
2024/02/07 13:06:22;;;;;;;;;;;;;;;17.58;39.29;94181.47;10428258;28;20296;-84
2024/02/07 13:11:22;;;;;;;;;;;;;;;17.73;38.82;94182.81;10444882;28;19931;-80
2024/02/07 13:16:23;;;;;;;;;;;;;;;17.76;38.64;94177.50;10445032;28;20228;-75
2024/02/07 13:21:23;;;;;;;;;;;;;;;17.34;38.74;94169.31;10426186;28;19917;-76
2024/02/07 13:26:24;;;;;;;;;;;;;;;16.90;39.41;94187.81;10415672;28;19920;-79
2024/02/07 13:31:24;;;;;;;;;;;;;;;16.94;39.38;94183.31;10409559;28;19923;-75
2024/02/07 13:36:25;;;;;;;;;;;;;;;16.91;39.05;94176.63;10426626;28;19935;-75
2024/02/07 13:41:25;;;;;;;;;;;;;;;17.45;39.45;94163.53;10425025;28;19920;-76
2024/02/07 13:46:26;;;;;;;;;;;;;;;17.79;36.94;94169.81;10427384;28;20031;-77
2024/02/07 13:51:26;;;;;;;;;;;;;;;17.97;40.06;94162.31;10425912;28;19916;-76
2024/02/07 13:56:26;;;;;;;;;;;;;;;18.04;40.29;94176.16;10435559;28;19967;-76
2024/02/07 14:01:26;;;;;;;;;;;;;;;17.74;40.99;94171.59;10443092;28;19916;-76
2024/02/07 14:06:27;;;;;;;;;;;;;;;17.17;42.32;94177.59;10425598;28;19923;-74
2024/02/07 14:11:27;;;;;;;;;;;;;;;16.71;43.20;94174.59;10396943;28;19929;-76
2024/02/07 14:16:27;;;;;;;;;;;;;;;16.54;44.50;94170.03;10425343;28;19917;-76
2024/02/07 14:21:27;;;;;;;;;;;;;;;16.32;45.28;94173.78;10425387;28;19982;-79
2024/02/07 14:26:28;;;;;;;;;;;;;;;16.00;46.22;94178.63;10424445;28;19924;-81
2024/02/07 14:31:28;;;;;;;;;;;;;;;15.72;47.74;94181.63;10427630;28;19975;-81
2024/02/07 14:36:28;;;;;;;;;;;;;;;15.68;48.63;94176.06;10430133;28;19913;-82
2024/02/07 14:41:29;;;;;;;;;;;;;;;15.55;49.55;94177.81;10432495;28;20363;-83
2024/02/07 14:46:30;;;;;;;;;;;;;;;15.53;50.17;94190.88;10432455;28;19920;-84
2024/02/07 14:51:30;;;;;;;;;;;;;;;15.49;50.87;94183.72;10430083;28;20291;-81
2024/02/07 14:56:31;;;;;;;;;;;;;;;15.45;50.90;94175.41;10430068;28;19919;-84
2024/02/07 15:01:31;;;;;;;;;;;;;;;15.28;51.69;94178.09;10429375;28;19943;-81
2024/02/07 15:06:31;;;;;;;;;;;;;;;15.26;51.77;94181.13;10429868;28;20176;-81
2024/02/07 15:11:31;;;;;;;;;;;;;;;15.10;52.24;94179.97;10450636;28;19974;-81
2024/02/07 15:16:32;;;;;;;;;;;;;;;14.92;53.32;94176.47;10402907;28;19913;-81
2024/02/07 15:21:33;;;;;;;;;;;;;;;14.82;53.99;94166.72;10413029;28;19917;-81
2024/02/07 15:26:36;;;;;;;;;;;;;;;14.70;54.67;94170.00;10449668;28;19921;-82
2024/02/07 15:31:36;;;;;;;;;;;;;;;14.45;55.74;94177.66;10430781;28;19967;-81
2024/02/07 15:36:36;;;;;;;;;;;;;;;14.30;56.74;94188.88;10431529;28;19986;-81
2024/02/07 15:41:37;;;;;;;;;;;;;;;14.19;57.04;94183.75;10445022;28;20379;-81
2024/02/07 15:46:37;;;;;;;;;;;;;;;13.93;58.84;94194.38;10407821;28;19917;-80
2024/02/07 15:51:38;;;;;;;;;;;;;;;13.66;60.43;94206.09;10419648;28;20311;-85
2024/02/07 15:56:39;;;;;;;;;;;;;;;13.50;62.32;94201.03;10403509;28;19972;-82
2024/02/07 16:01:39;;;;;;;;;;;;;;;13.30;64.06;94204.97;10398152;28;19920;-80
2024/02/07 16:06:40;;;;;;;;;;;;;;;13.25;65.35;94204.28;10427781;28;20283;-81
2024/02/07 16:11:40;;;;;;;;;;;;;;;13.17;65.74;94211.16;10437200;28;20028;-81
2024/02/07 16:16:41;;;;;;;;;;;;;;;13.00;68.55;94209.09;10431891;28;19961;-84
2024/02/07 16:21:42;;;;;;;;;;;;;;;12.95;69.37;94217.31;10433611;28;20238;-82
2024/02/07 16:26:55;;;;;;;;;;;;;;;12.70;71.23;94229.38;10441945;28;20303;-79
2024/02/07 16:31:55;;;;;;;;;;;;;;;12.75;72.15;94230.06;10429146;28;20011;-81
2024/02/07 16:36:56;;;;;;;;;;;;;;;12.71;71.99;94215.63;10429972;28;20011;-79
2024/02/07 16:41:56;;;;;;;;;;;;;;;12.68;72.14;94223.50;10429904;28;20395;-81
2024/02/07 16:46:56;;;;;;;;;;;;;;;12.68;72.76;94221.59;10436624;28;20027;-80
2024/02/07 16:51:58;;;;;;;;;;;;;;;12.59;72.26;94223.41;10431442;28;19913;-81
2024/02/07 16:56:59;;;;;;;;;;;;;;;12.64;70.83;94224.09;10418154;28;20313;-85
2024/02/07 17:01:59;;;;;;;;;;;;;;;12.68;69.23;94236.97;10392786;28;19921;-80
2024/02/07 17:06:59;;;;;;;;;;;;;;;12.70;70.22;94238.28;10446534;28;19917;-81
2024/02/07 17:12:03;;;;;;;;;;;;;;;12.62;70.40;94230.88;10401369;28;20384;-84
2024/02/07 17:17:04;;;;;;;;;;;;;;;12.56;68.32;94238.25;10448116;28;19920;-80
2024/02/07 17:22:04;;;;;;;;;;;;;;;12.61;69.02;94235.47;10417220;28;19913;-77
2024/02/07 17:27:04;;;;;;;;;;;;;;;12.57;68.15;94229.09;10392017;28;19921;-83
2024/02/07 17:32:05;;;;;;;;;;;;;;;12.46;64.69;94222.25;10427342;28;20004;-79
2024/02/07 17:37:11;;;;;;;;;;;;;;;12.45;62.54;94226.06;10444656;28;19920;-83
2024/02/07 17:42:11;;;;;;;;;;;;;;;12.24;60.08;94220.25;10428275;28;20003;-87
2024/02/07 17:47:12;;;;;;;;;;;;;;;12.25;58.08;94225.34;10445388;28;19996;-80
2024/02/07 17:52:12;;;;;;;;;;;;;;;12.18;59.35;94224.09;10422410;28;19940;-79
2024/02/07 17:57:12;;;;;;;;;;;;;;;12.33;58.71;94228.44;10438558;28;19913;-87
2024/02/07 18:02:13;;;;;;;;;;;;;;;12.38;58.61;94231.84;10441176;28;19923;-85
2024/02/07 18:07:13;;;;;;;;;;;;;;;12.40;58.09;94234.25;10426662;28;19917;-77
2024/02/07 18:12:15;;;;;;;;;;;;;;;12.24;59.43;94237.19;10443895;28;19925;-82
2024/02/07 18:17:17;;;;;;;;;;;;;;;12.14;61.92;94232.78;10394089;28;20299;-85
2024/02/07 18:22:18;;;;;;;;;;;;;;;12.14;63.34;94230.09;10426719;28;20432;-81
2024/02/07 18:27:18;;;;;;;;;;;;;;;12.13;62.41;94233.88;10427305;28;20019;-89
2024/02/07 18:32:18;;;;;;;;;;;;;;;12.04;62.51;94224.06;10415702;28;19913;-89
2024/02/07 18:37:18;;;;;;;;;;;;;;;11.98;63.13;94212.59;10411678;28;19921;-79
2024/02/07 18:42:19;;;;;;;;;;;;;;;12.06;62.17;94229.97;10396286;28;19947;-83
2024/02/07 18:47:19;;;;;;;;;;;;;;;12.08;62.51;94230.47;10419023;28;20889;-83
2024/02/07 18:52:19;;;;;;;;;;;;;;;11.93;63.73;94224.22;10404316;28;20356;-79
2024/02/07 18:57:19;;;;;;;;;;;;;;;11.71;65.62;94227.53;10385852;28;19913;-77
2024/02/07 19:02:20;;;;;;;;;;;;;;;11.71;67.37;94235.59;10391195;28;19920;-78
2024/02/07 19:07:20;;;;;;;;;;;;;;;11.75;65.02;94242.00;10378905;28;20410;-78
2024/02/07 19:12:20;;;;;;;;;;;;;;;11.84;65.66;94233.25;10377025;28;19932;-78
2024/02/07 19:17:22;;;;;;;;;;;;;;;11.90;65.12;94227.50;10381370;28;19936;-81
2024/02/07 19:22:25;;;;;;;;;;;;;;;12.05;64.69;94221.06;10379940;28;19919;-81
2024/02/07 19:27:25;;;;;;;;;;;;;;;12.10;64.30;94225.59;10378618;28;20008;-78
2024/02/07 19:32:25;;;;;;;;;;;;;;;12.13;64.17;94230.41;10377208;28;19914;-81
2024/02/07 19:37:27;;;;;;;;;;;;;;;12.21;63.86;94223.50;10381379;28;20004;-84
2024/02/07 19:42:28;;;;;;;;;;;;;;;12.27;63.40;94216.97;10383555;28;19955;-78
2024/02/07 19:47:28;;;;;;;;;;;;;;;12.28;63.57;94232.81;10401329;28;20011;-81
2024/02/07 19:52:28;;;;;;;;;;;;;;;12.23;64.73;94221.34;10381964;28;19999;-82
2024/02/07 19:57:30;;;;;;;;;;;;;;;12.19;64.96;94217.63;10384836;28;20409;-81
2024/02/07 20:02:30;;;;;;;;;;;;;;;12.19;65.63;94218.41;10383743;28;19970;-78
2024/02/07 20:07:30;;;;;;;;;;;;;;;12.14;65.98;94213.94;10382615;28;19917;-77
2024/02/07 20:12:31;;;;;;;;;;;;;;;12.12;66.62;94213.41;10395953;28;19959;-82
2024/02/07 20:17:31;;;;;;;;;;;;;;;12.09;66.23;94216.69;10379041;28;19917;-77
2024/02/07 20:22:31;;;;;;;;;;;;;;;12.06;66.06;94217.28;10382705;28;19917;-77
2024/02/07 20:27:31;;;;;;;;;;;;;;;12.04;68.00;94216.81;10376945;28;19928;-81
2024/02/07 20:32:33;;;;;;;;;;;;;;;11.98;67.45;94217.97;10380078;28;19919;-80
2024/02/07 20:37:34;;;;;;;;;;;;;;;11.95;67.80;94213.97;10381341;28;20026;-77
2024/02/07 20:42:34;;;;;;;;;;;;;;;11.84;68.54;94217.09;10381439;28;20051;-78
2024/02/07 20:47:35;;;;;;;;;;;;;;;11.83;69.02;94218.97;10384900;28;20403;-81
2024/02/07 20:52:35;;;;;;;;;;;;;;;11.62;69.99;94216.63;10396260;28;19917;-80
2024/02/07 20:57:36;;;;;;;;;;;;;;;11.68;69.16;94213.84;10380782;28;19924;-77
2024/02/07 21:02:36;;;;;;;;;;;;;;;11.55;70.09;94205.41;10382695;28;20368;-82
2024/02/07 21:07:36;;;;;;;;;;;;;;;11.28;72.46;94214.13;10377631;28;19925;-81
2024/02/07 21:12:36;;;;;;;;;;;;;;;11.24;72.69;94218.50;10395918;28;19933;-83
2024/02/07 21:17:39;;;;;;;;;;;;;;;11.29;73.19;94211.16;10377006;28;19925;-79
2024/02/07 21:22:40;;;;;;;;;;;;;;;11.28;73.84;94217.63;10381900;28;19928;-78
2024/02/07 21:27:40;;;;;;;;;;;;;;;11.15;72.82;94217.53;10380121;28;20406;-82
2024/02/07 21:32:41;;;;;;;;;;;;;;;10.95;74.89;94224.78;10377733;28;19978;-83
2024/02/07 21:37:42;;;;;;;;;;;;;;;10.53;77.13;94221.75;10376988;28;19964;-81
2024/02/07 21:42:42;;;;;;;;;;;;;;;10.47;79.28;94228.28;10390666;28;19917;-78
2024/02/07 21:47:43;;;;;;;;;;;;;;;10.11;83.24;94244.69;10394414;28;19917;-77
2024/02/07 21:52:43;;;;;;;;;;;;;;;10.03;86.26;94243.44;10374722;28;19913;-79
2024/02/07 21:57:43;;;;;;;;;;;;;;;9.92;88.15;94241.91;10377352;28;20008;-82
2024/02/07 22:02:44;;;;;;;;;;;;;;;9.81;90.29;94249.25;10378955;28;19920;-80
2024/02/07 22:07:44;;;;;;;;;;;;;;;9.55;94.07;94259.34;10380647;28;19921;-81
2024/02/07 22:12:44;;;;;;;;;;;;;;;9.45;95.51;94264.78;10376263;28;20362;-76
2024/02/07 22:17:44;;;;;;;;;;;;;;;9.40;97.62;94263.75;10381815;28;19935;-81
2024/02/07 22:22:45;;;;;;;;;;;;;;;9.34;98.35;94267.50;10377494;28;19913;-78
2024/02/07 22:27:45;;;;;;;;;;;;;;;9.37;99.02;94258.13;10377340;28;20062;-77
2024/02/07 22:32:50;;;;;;;;;;;;;;;9.05;100.00;94267.38;10377514;28;20376;-77
2024/02/07 22:37:50;;;;;;;;;;;;;;;9.19;100.00;94265.69;10380265;28;20012;-80
2024/02/07 22:42:50;;;;;;;;;;;;;;;9.12;100.00;94251.00;10379508;28;19913;-78
2024/02/07 22:47:52;;;;;;;;;;;;;;;8.85;100.00;94260.25;10376602;28;19984;-77
2024/02/07 22:52:52;;;;;;;;;;;;;;;8.83;100.00;94271.22;10383116;28;20024;-78
2024/02/07 22:57:53;;;;;;;;;;;;;;;8.84;100.00;94258.63;10383725;28;19928;-77
2024/02/07 23:02:54;;;;;;;;;;;;;;;8.83;100.00;94267.72;10365915;28;20391;-78
2024/02/07 23:07:55;;;;;;;;;;;;;;;8.72;100.00;94280.34;10385213;28;20378;-80
2024/02/07 23:12:55;;;;;;;;;;;;;;;8.54;100.00;94279.09;10400582;28;19960;-76
2024/02/07 23:17:56;;;;;;;;;;;;;;;8.35;100.00;94270.78;10396713;28;20079;-78
2024/02/07 23:22:56;;;;;;;;;;;;;;;8.43;100.00;94280.13;10402642;28;20042;-79
2024/02/07 23:27:59;;;;;;;;;;;;;;;8.51;100.00;94274.25;10383061;28;19917;-77
2024/02/07 23:33:00;;;;;;;;;;;;;;;8.47;100.00;94276.69;10381754;28;19913;-78
2024/02/07 23:38:01;;;;;;;;;;;;;;;8.50;100.00;94267.31;10382231;28;19913;-78
2024/02/07 23:43:01;;;;;;;;;;;;;;;8.35;100.00;94263.53;10384246;28;19912;-77
2024/02/07 23:48:01;;;;;;;;;;;;;;;7.99;100.00;94268.91;10381915;28;19921;-77
2024/02/07 23:53:01;;;;;;;;;;;;;;;7.96;100.00;94260.66;10401495;28;20000;-77
2024/02/07 23:58:02;;;;;;;;;;;;;;;7.93;100.00;94263.84;10381921;28;19916;-77
